sensor_id;sensor_type;location;lat;lon;timestamp;P1;durP1;ratioP1;P2;durP2;ratioP2
6939;SDS011;3509;48.510;9.076;2022-09-13T00:00:35;10.85;;;6.15;;
6939;SDS011;3509;48.510;9.076;2022-09-13T00:03:02;10.98;;;6.28;;
6939;SDS011;3509;48.510;9.076;2022-09-13T00:05:28;10.07;;;6.75;;
6939;SDS011;3509;48.510;9.076;2022-09-13T00:07:54;9.10;;;6.20;;
6939;SDS011;3509;48.510;9.076;2022-09-13T00:10:20;10.32;;;6.13;;
6939;SDS011;3509;48.510;9.076;2022-09-13T00:12:49;7.15;;;6.00;;
6939;SDS011;3509;48.510;9.076;2022-09-13T00:15:15;11.70;;;6.43;;
6939;SDS011;3509;48.510;9.076;2022-09-13T00:17:40;9.48;;;6.75;;
6939;SDS011;3509;48.510;9.076;2022-09-13T00:20:06;13.27;;;6.65;;
6939;SDS011;3509;48.510;9.076;2022-09-13T00:22:33;10.13;;;6.30;;
6939;SDS011;3509;48.510;9.076;2022-09-13T00:25:01;11.27;;;6.53;;
6939;SDS011;3509;48.510;9.076;2022-09-13T00:27:34;7.30;;;6.50;;
6939;SDS011;3509;48.510;9.076;2022-09-13T00:30:04;12.25;;;6.57;;
6939;SDS011;3509;48.510;9.076;2022-09-13T00:32:32;7.15;;;6.43;;
6939;SDS011;3509;48.510;9.076;2022-09-13T00:34:59;8.93;;;6.03;;
6939;SDS011;3509;48.510;9.076;2022-09-13T00:37:25;13.82;;;7.03;;
6939;SDS011;3509;48.510;9.076;2022-09-13T00:39:51;8.68;;;6.50;;
6939;SDS011;3509;48.510;9.076;2022-09-13T00:42:16;10.75;;;6.80;;
6939;SDS011;3509;48.510;9.076;2022-09-13T00:47:22;9.40;;;7.25;;
6939;SDS011;3509;48.510;9.076;2022-09-13T00:49:50;11.50;;;7.05;;
6939;SDS011;3509;48.510;9.076;2022-09-13T00:52:19;7.85;;;7.00;;
6939;SDS011;3509;48.510;9.076;2022-09-13T00:54:51;10.40;;;7.20;;
6939;SDS011;3509;48.510;9.076;2022-09-13T00:57:24;9.95;;;6.50;;
6939;SDS011;3509;48.510;9.076;2022-09-13T00:59:52;8.18;;;6.63;;
6939;SDS011;3509;48.510;9.076;2022-09-13T01:02:25;10.32;;;6.53;;
6939;SDS011;3509;48.510;9.076;2022-09-13T01:04:52;9.13;;;7.07;;
6939;SDS011;3509;48.510;9.076;2022-09-13T01:07:18;8.82;;;7.38;;
6939;SDS011;3509;48.510;9.076;2022-09-13T01:09:44;10.13;;;7.10;;
6939;SDS011;3509;48.510;9.076;2022-09-13T01:14:58;13.38;;;7.55;;
6939;SDS011;3509;48.510;9.076;2022-09-13T01:17:26;11.32;;;6.80;;
6939;SDS011;3509;48.510;9.076;2022-09-13T01:19:53;11.35;;;7.22;;
6939;SDS011;3509;48.510;9.076;2022-09-13T01:30:36;10.35;;;6.80;;
6939;SDS011;3509;48.510;9.076;2022-09-13T01:33:20;8.93;;;7.00;;
6939;SDS011;3509;48.510;9.076;2022-09-13T01:36:17;10.95;;;7.57;;
6939;SDS011;3509;48.510;9.076;2022-09-13T01:38:59;12.65;;;7.50;;
6939;SDS011;3509;48.510;9.076;2022-09-13T01:57:57;13.77;;;8.32;;
6939;SDS011;3509;48.510;9.076;2022-09-13T02:00:39;13.20;;;8.35;;
6939;SDS011;3509;48.510;9.076;2022-09-13T02:03:18;12.93;;;8.07;;
6939;SDS011;3509;48.510;9.076;2022-09-13T02:05:53;13.13;;;8.27;;
6939;SDS011;3509;48.510;9.076;2022-09-13T02:08:41;9.98;;;7.10;;
6939;SDS011;3509;48.510;9.076;2022-09-13T02:11:11;10.63;;;8.18;;
6939;SDS011;3509;48.510;9.076;2022-09-13T02:16:28;13.18;;;8.10;;
6939;SDS011;3509;48.510;9.076;2022-09-13T02:18:58;10.25;;;7.72;;
6939;SDS011;3509;48.510;9.076;2022-09-13T02:21:42;13.65;;;8.38;;
6939;SDS011;3509;48.510;9.076;2022-09-13T02:24:15;10.15;;;8.25;;
6939;SDS011;3509;48.510;9.076;2022-09-13T02:27:07;11.20;;;8.25;;
6939;SDS011;3509;48.510;9.076;2022-09-13T02:29:37;10.43;;;7.50;;
6939;SDS011;3509;48.510;9.076;2022-09-13T02:34:48;9.20;;;7.50;;
6939;SDS011;3509;48.510;9.076;2022-09-13T02:37:18;12.70;;;8.20;;
6939;SDS011;3509;48.510;9.076;2022-09-13T02:39:46;9.95;;;7.80;;
6939;SDS011;3509;48.510;9.076;2022-09-13T02:44:51;12.65;;;7.88;;
6939;SDS011;3509;48.510;9.076;2022-09-13T02:55:18;9.73;;;7.50;;
6939;SDS011;3509;48.510;9.076;2022-09-13T03:00:31;13.95;;;8.52;;
6939;SDS011;3509;48.510;9.076;2022-09-13T03:02:57;14.70;;;8.65;;
6939;SDS011;3509;48.510;9.076;2022-09-13T03:05:26;19.23;;;9.63;;
6939;SDS011;3509;48.510;9.076;2022-09-13T03:07:52;17.90;;;9.05;;
6939;SDS011;3509;48.510;9.076;2022-09-13T03:10:18;14.18;;;9.05;;
6939;SDS011;3509;48.510;9.076;2022-09-13T03:21:55;11.48;;;8.27;;
6939;SDS011;3509;48.510;9.076;2022-09-13T03:24:27;13.30;;;9.57;;
6939;SDS011;3509;48.510;9.076;2022-09-13T03:39:59;13.25;;;9.68;;
6939;SDS011;3509;48.510;9.076;2022-09-13T03:43:35;17.85;;;9.52;;
6939;SDS011;3509;48.510;9.076;2022-09-13T03:45:30;19.17;;;9.75;;
6939;SDS011;3509;48.510;9.076;2022-09-13T03:47:59;17.95;;;9.98;;
6939;SDS011;3509;48.510;9.076;2022-09-13T03:50:26;15.77;;;9.55;;
6939;SDS011;3509;48.510;9.076;2022-09-13T03:53:00;16.90;;;9.60;;
6939;SDS011;3509;48.510;9.076;2022-09-13T03:55:37;12.77;;;8.65;;
6939;SDS011;3509;48.510;9.076;2022-09-13T03:58:05;16.48;;;9.32;;
6939;SDS011;3509;48.510;9.076;2022-09-13T04:00:33;13.13;;;9.40;;
6939;SDS011;3509;48.510;9.076;2022-09-13T04:02:58;16.52;;;9.65;;
6939;SDS011;3509;48.510;9.076;2022-09-13T04:05:24;15.70;;;9.57;;
6939;SDS011;3509;48.510;9.076;2022-09-13T04:07:49;12.32;;;8.00;;
6939;SDS011;3509;48.510;9.076;2022-09-13T04:10:15;14.25;;;9.82;;
6939;SDS011;3509;48.510;9.076;2022-09-13T04:12:40;15.00;;;9.63;;
6939;SDS011;3509;48.510;9.076;2022-09-13T04:15:06;14.85;;;8.65;;
6939;SDS011;3509;48.510;9.076;2022-09-13T04:17:32;15.63;;;9.30;;
6939;SDS011;3509;48.510;9.076;2022-09-13T04:19:58;22.42;;;9.35;;
6939;SDS011;3509;48.510;9.076;2022-09-13T04:22:23;17.92;;;9.73;;
6939;SDS011;3509;48.510;9.076;2022-09-13T04:24:49;14.20;;;9.52;;
6939;SDS011;3509;48.510;9.076;2022-09-13T04:27:16;14.27;;;8.98;;
6939;SDS011;3509;48.510;9.076;2022-09-13T04:29:42;15.85;;;8.95;;
6939;SDS011;3509;48.510;9.076;2022-09-13T04:32:08;14.13;;;9.10;;
6939;SDS011;3509;48.510;9.076;2022-09-13T04:34:34;15.35;;;9.55;;
6939;SDS011;3509;48.510;9.076;2022-09-13T04:37:01;15.20;;;8.88;;
6939;SDS011;3509;48.510;9.076;2022-09-13T04:39:26;15.82;;;9.68;;
6939;SDS011;3509;48.510;9.076;2022-09-13T04:41:52;13.15;;;9.27;;
6939;SDS011;3509;48.510;9.076;2022-09-13T04:44:19;14.38;;;9.23;;
6939;SDS011;3509;48.510;9.076;2022-09-13T04:46:46;13.98;;;9.52;;
6939;SDS011;3509;48.510;9.076;2022-09-13T04:49:14;15.30;;;9.73;;
6939;SDS011;3509;48.510;9.076;2022-09-13T04:51:40;17.75;;;9.30;;
6939;SDS011;3509;48.510;9.076;2022-09-13T04:54:07;14.63;;;9.00;;
6939;SDS011;3509;48.510;9.076;2022-09-13T04:56:34;15.75;;;8.80;;
6939;SDS011;3509;48.510;9.076;2022-09-13T04:58:59;14.73;;;10.02;;
6939;SDS011;3509;48.510;9.076;2022-09-13T05:01:25;14.68;;;9.32;;
6939;SDS011;3509;48.510;9.076;2022-09-13T05:03:51;16.83;;;10.23;;
6939;SDS011;3509;48.510;9.076;2022-09-13T05:06:18;12.75;;;10.23;;
6939;SDS011;3509;48.510;9.076;2022-09-13T05:08:48;16.60;;;9.68;;
6939;SDS011;3509;48.510;9.076;2022-09-13T05:11:16;13.48;;;9.32;;
6939;SDS011;3509;48.510;9.076;2022-09-13T05:13:42;17.50;;;8.80;;
6939;SDS011;3509;48.510;9.076;2022-09-13T05:16:08;17.02;;;9.57;;
6939;SDS011;3509;48.510;9.076;2022-09-13T05:18:35;13.55;;;9.52;;
6939;SDS011;3509;48.510;9.076;2022-09-13T05:21:01;11.57;;;8.65;;
6939;SDS011;3509;48.510;9.076;2022-09-13T05:23:28;15.25;;;11.00;;
6939;SDS011;3509;48.510;9.076;2022-09-13T05:25:59;12.38;;;9.18;;
6939;SDS011;3509;48.510;9.076;2022-09-13T05:28:30;17.50;;;9.05;;
6939;SDS011;3509;48.510;9.076;2022-09-13T05:30:58;18.45;;;9.13;;
6939;SDS011;3509;48.510;9.076;2022-09-13T05:33:24;11.88;;;9.25;;
6939;SDS011;3509;48.510;9.076;2022-09-13T05:35:51;13.55;;;9.70;;
6939;SDS011;3509;48.510;9.076;2022-09-13T05:38:17;11.10;;;7.95;;
6939;SDS011;3509;48.510;9.076;2022-09-13T05:40:43;12.35;;;8.60;;
6939;SDS011;3509;48.510;9.076;2022-09-13T05:43:09;12.65;;;9.20;;
6939;SDS011;3509;48.510;9.076;2022-09-13T05:45:34;11.85;;;9.20;;
6939;SDS011;3509;48.510;9.076;2022-09-13T05:48:00;14.25;;;9.00;;
6939;SDS011;3509;48.510;9.076;2022-09-13T05:50:26;11.85;;;8.95;;
6939;SDS011;3509;48.510;9.076;2022-09-13T05:52:52;11.60;;;8.90;;
6939;SDS011;3509;48.510;9.076;2022-09-13T05:55:18;10.50;;;8.50;;
6939;SDS011;3509;48.510;9.076;2022-09-13T05:57:45;10.73;;;7.97;;
6939;SDS011;3509;48.510;9.076;2022-09-13T06:00:11;10.88;;;7.85;;
6939;SDS011;3509;48.510;9.076;2022-09-13T06:02:37;9.68;;;7.53;;
6939;SDS011;3509;48.510;9.076;2022-09-13T06:05:02;13.57;;;7.43;;
6939;SDS011;3509;48.510;9.076;2022-09-13T06:07:28;11.48;;;7.60;;
6939;SDS011;3509;48.510;9.076;2022-09-13T06:09:54;9.93;;;6.88;;
6939;SDS011;3509;48.510;9.076;2022-09-13T06:12:19;11.48;;;6.70;;
6939;SDS011;3509;48.510;9.076;2022-09-13T06:14:45;8.23;;;6.70;;
6939;SDS011;3509;48.510;9.076;2022-09-13T06:17:11;11.73;;;6.60;;
6939;SDS011;3509;48.510;9.076;2022-09-13T06:19:36;12.52;;;7.47;;
6939;SDS011;3509;48.510;9.076;2022-09-13T06:22:03;8.73;;;6.70;;
6939;SDS011;3509;48.510;9.076;2022-09-13T06:24:29;9.60;;;7.25;;
6939;SDS011;3509;48.510;9.076;2022-09-13T06:26:55;8.40;;;6.55;;
6939;SDS011;3509;48.510;9.076;2022-09-13T06:29:20;7.68;;;5.28;;
6939;SDS011;3509;48.510;9.076;2022-09-13T06:31:46;5.35;;;4.82;;
6939;SDS011;3509;48.510;9.076;2022-09-13T06:34:11;4.53;;;3.97;;
6939;SDS011;3509;48.510;9.076;2022-09-13T06:36:41;5.47;;;3.72;;
6939;SDS011;3509;48.510;9.076;2022-09-13T06:39:07;8.55;;;3.67;;
6939;SDS011;3509;48.510;9.076;2022-09-13T06:41:33;8.98;;;3.38;;
6939;SDS011;3509;48.510;9.076;2022-09-13T06:43:59;7.85;;;3.28;;
6939;SDS011;3509;48.510;9.076;2022-09-13T06:46:26;4.38;;;3.35;;
6939;SDS011;3509;48.510;9.076;2022-09-13T06:48:53;5.63;;;2.70;;
6939;SDS011;3509;48.510;9.076;2022-09-13T06:51:21;20.13;;;3.22;;
6939;SDS011;3509;48.510;9.076;2022-09-13T06:53:48;2.85;;;2.15;;
6939;SDS011;3509;48.510;9.076;2022-09-13T06:56:25;7.25;;;2.50;;
6939;SDS011;3509;48.510;9.076;2022-09-13T06:58:56;3.33;;;2.30;;
6939;SDS011;3509;48.510;9.076;2022-09-13T07:01:24;3.80;;;2.25;;
6939;SDS011;3509;48.510;9.076;2022-09-13T07:03:59;4.85;;;2.85;;
6939;SDS011;3509;48.510;9.076;2022-09-13T07:06:27;4.85;;;2.60;;
6939;SDS011;3509;48.510;9.076;2022-09-13T07:09:00;5.38;;;2.40;;
6939;SDS011;3509;48.510;9.076;2022-09-13T07:11:30;4.95;;;2.70;;
6939;SDS011;3509;48.510;9.076;2022-09-13T07:13:58;2.90;;;2.60;;
6939;SDS011;3509;48.510;9.076;2022-09-13T07:16:26;7.75;;;2.67;;
6939;SDS011;3509;48.510;9.076;2022-09-13T07:18:53;9.43;;;2.58;;
6939;SDS011;3509;48.510;9.076;2022-09-13T07:21:24;5.28;;;2.55;;
6939;SDS011;3509;48.510;9.076;2022-09-13T07:23:51;5.50;;;2.70;;
6939;SDS011;3509;48.510;9.076;2022-09-13T07:26:17;4.15;;;2.70;;
6939;SDS011;3509;48.510;9.076;2022-09-13T07:28:44;2.63;;;2.42;;
6939;SDS011;3509;48.510;9.076;2022-09-13T07:33:43;6.93;;;2.85;;
6939;SDS011;3509;48.510;9.076;2022-09-13T07:36:10;4.32;;;2.60;;
6939;SDS011;3509;48.510;9.076;2022-09-13T07:38:37;4.88;;;2.65;;
6939;SDS011;3509;48.510;9.076;2022-09-13T07:41:11;4.22;;;2.75;;
6939;SDS011;3509;48.510;9.076;2022-09-13T07:43:42;9.10;;;2.92;;
6939;SDS011;3509;48.510;9.076;2022-09-13T07:46:09;4.80;;;2.38;;
6939;SDS011;3509;48.510;9.076;2022-09-13T07:48:39;7.00;;;2.78;;
6939;SDS011;3509;48.510;9.076;2022-09-13T07:51:07;5.10;;;2.90;;
6939;SDS011;3509;48.510;9.076;2022-09-13T07:53:35;7.32;;;2.70;;
6939;SDS011;3509;48.510;9.076;2022-09-13T07:56:06;7.25;;;2.63;;
6939;SDS011;3509;48.510;9.076;2022-09-13T07:58:32;4.03;;;2.55;;
6939;SDS011;3509;48.510;9.076;2022-09-13T08:01:03;5.05;;;2.70;;
6939;SDS011;3509;48.510;9.076;2022-09-13T08:03:31;6.43;;;2.60;;
6939;SDS011;3509;48.510;9.076;2022-09-13T08:05:58;7.68;;;2.38;;
6939;SDS011;3509;48.510;9.076;2022-09-13T08:08:26;5.43;;;2.30;;
6939;SDS011;3509;48.510;9.076;2022-09-13T08:10:52;2.83;;;2.05;;
6939;SDS011;3509;48.510;9.076;2022-09-13T08:13:18;6.63;;;2.30;;
6939;SDS011;3509;48.510;9.076;2022-09-13T08:15:47;6.05;;;2.10;;
6939;SDS011;3509;48.510;9.076;2022-09-13T08:18:13;6.68;;;2.60;;
6939;SDS011;3509;48.510;9.076;2022-09-13T08:20:43;3.08;;;2.13;;
6939;SDS011;3509;48.510;9.076;2022-09-13T08:23:09;9.20;;;2.60;;
6939;SDS011;3509;48.510;9.076;2022-09-13T08:25:36;9.02;;;2.75;;
6939;SDS011;3509;48.510;9.076;2022-09-13T08:28:15;6.88;;;2.40;;
6939;SDS011;3509;48.510;9.076;2022-09-13T08:30:42;5.93;;;2.20;;
6939;SDS011;3509;48.510;9.076;2022-09-13T08:33:08;10.00;;;2.50;;
6939;SDS011;3509;48.510;9.076;2022-09-13T08:35:35;6.70;;;2.35;;
6939;SDS011;3509;48.510;9.076;2022-09-13T08:38:02;9.23;;;2.55;;
6939;SDS011;3509;48.510;9.076;2022-09-13T08:40:29;3.80;;;2.45;;
6939;SDS011;3509;48.510;9.076;2022-09-13T08:45:47;5.90;;;2.30;;
6939;SDS011;3509;48.510;9.076;2022-09-13T08:48:21;7.57;;;2.28;;
6939;SDS011;3509;48.510;9.076;2022-09-13T08:50:52;5.45;;;2.38;;
6939;SDS011;3509;48.510;9.076;2022-09-13T08:53:29;3.63;;;2.00;;
6939;SDS011;3509;48.510;9.076;2022-09-13T08:56:03;9.60;;;2.67;;
6939;SDS011;3509;48.510;9.076;2022-09-13T09:06:20;3.92;;;2.20;;
6939;SDS011;3509;48.510;9.076;2022-09-13T09:11:25;3.97;;;1.95;;
6939;SDS011;3509;48.510;9.076;2022-09-13T09:14:17;4.07;;;2.05;;
6939;SDS011;3509;48.510;9.076;2022-09-13T09:17:07;3.22;;;2.15;;
6939;SDS011;3509;48.510;9.076;2022-09-13T09:19:41;5.20;;;2.10;;
6939;SDS011;3509;48.510;9.076;2022-09-13T09:22:20;3.17;;;1.92;;
6939;SDS011;3509;48.510;9.076;2022-09-13T09:24:50;4.35;;;1.90;;
6939;SDS011;3509;48.510;9.076;2022-09-13T09:27:18;3.67;;;1.95;;
6939;SDS011;3509;48.510;9.076;2022-09-13T09:29:52;3.47;;;1.80;;
6939;SDS011;3509;48.510;9.076;2022-09-13T09:41:00;15.00;;;2.50;;
6939;SDS011;3509;48.510;9.076;2022-09-13T09:44:16;2.63;;;1.70;;
6939;SDS011;3509;48.510;9.076;2022-09-13T09:46:22;5.38;;;2.03;;
6939;SDS011;3509;48.510;9.076;2022-09-13T09:48:54;4.18;;;2.00;;
6939;SDS011;3509;48.510;9.076;2022-09-13T09:51:25;6.22;;;2.17;;
6939;SDS011;3509;48.510;9.076;2022-09-13T09:53:56;4.70;;;2.00;;
6939;SDS011;3509;48.510;9.076;2022-09-13T09:56:34;7.97;;;1.90;;
6939;SDS011;3509;48.510;9.076;2022-09-13T09:59:02;5.55;;;1.92;;
6939;SDS011;3509;48.510;9.076;2022-09-13T10:01:31;4.03;;;1.50;;
6939;SDS011;3509;48.510;9.076;2022-09-13T10:06:38;2.70;;;1.65;;
6939;SDS011;3509;48.510;9.076;2022-09-13T10:09:13;4.65;;;1.83;;
6939;SDS011;3509;48.510;9.076;2022-09-13T10:11:45;3.78;;;1.60;;
6939;SDS011;3509;48.510;9.076;2022-09-13T10:20:02;2.40;;;1.40;;
6939;SDS011;3509;48.510;9.076;2022-09-13T10:23:09;4.18;;;1.70;;
6939;SDS011;3509;48.510;9.076;2022-09-13T10:25:59;3.25;;;1.60;;
6939;SDS011;3509;48.510;9.076;2022-09-13T10:28:31;3.35;;;1.58;;
6939;SDS011;3509;48.510;9.076;2022-09-13T10:31:04;5.20;;;1.40;;
6939;SDS011;3509;48.510;9.076;2022-09-13T10:36:10;3.80;;;1.50;;
6939;SDS011;3509;48.510;9.076;2022-09-13T10:38:41;1.70;;;1.30;;
6939;SDS011;3509;48.510;9.076;2022-09-13T10:41:23;2.10;;;1.48;;
6939;SDS011;3509;48.510;9.076;2022-09-13T10:43:55;3.58;;;1.70;;
6939;SDS011;3509;48.510;9.076;2022-09-13T10:46:26;4.32;;;1.40;;
6939;SDS011;3509;48.510;9.076;2022-09-13T10:48:56;3.28;;;1.40;;
6939;SDS011;3509;48.510;9.076;2022-09-13T10:54:33;1.98;;;1.55;;
6939;SDS011;3509;48.510;9.076;2022-09-13T10:56:47;2.35;;;1.42;;
6939;SDS011;3509;48.510;9.076;2022-09-13T10:59:21;1.45;;;1.20;;
6939;SDS011;3509;48.510;9.076;2022-09-13T11:04:44;4.50;;;1.60;;
6939;SDS011;3509;48.510;9.076;2022-09-13T11:07:22;1.70;;;1.40;;
6939;SDS011;3509;48.510;9.076;2022-09-13T11:12:39;2.70;;;2.42;;
6939;SDS011;3509;48.510;9.076;2022-09-13T11:15:30;3.80;;;2.50;;
6939;SDS011;3509;48.510;9.076;2022-09-13T11:26:38;3.15;;;1.70;;
6939;SDS011;3509;48.510;9.076;2022-09-13T11:37:57;4.50;;;2.45;;
6939;SDS011;3509;48.510;9.076;2022-09-13T11:43:29;5.18;;;1.83;;
6939;SDS011;3509;48.510;9.076;2022-09-13T11:54:48;3.58;;;2.50;;
6939;SDS011;3509;48.510;9.076;2022-09-13T11:57:22;2.53;;;1.27;;
6939;SDS011;3509;48.510;9.076;2022-09-13T12:00:25;2.30;;;1.30;;
6939;SDS011;3509;48.510;9.076;2022-09-13T12:06:00;1.30;;;1.20;;
6939;SDS011;3509;48.510;9.076;2022-09-13T12:08:34;3.35;;;1.88;;
6939;SDS011;3509;48.510;9.076;2022-09-13T12:11:16;4.70;;;1.60;;
6939;SDS011;3509;48.510;9.076;2022-09-13T12:13:57;1.52;;;1.40;;
6939;SDS011;3509;48.510;9.076;2022-09-13T12:16:36;2.05;;;1.15;;
6939;SDS011;3509;48.510;9.076;2022-09-13T12:19:06;1.77;;;1.17;;
6939;SDS011;3509;48.510;9.076;2022-09-13T12:21:39;4.18;;;1.20;;
6939;SDS011;3509;48.510;9.076;2022-09-13T12:24:15;2.15;;;1.00;;
6939;SDS011;3509;48.510;9.076;2022-09-13T12:27:06;4.00;;;1.25;;
6939;SDS011;3509;48.510;9.076;2022-09-13T12:29:45;2.28;;;1.20;;
6939;SDS011;3509;48.510;9.076;2022-09-13T12:32:17;2.70;;;1.48;;
6939;SDS011;3509;48.510;9.076;2022-09-13T12:37:27;1.80;;;1.20;;
6939;SDS011;3509;48.510;9.076;2022-09-13T12:51:10;1.45;;;1.13;;
6939;SDS011;3509;48.510;9.076;2022-09-13T12:56:50;3.03;;;1.00;;
6939;SDS011;3509;48.510;9.076;2022-09-13T13:02:27;1.73;;;1.10;;
6939;SDS011;3509;48.510;9.076;2022-09-13T13:05:04;2.33;;;1.17;;
6939;SDS011;3509;48.510;9.076;2022-09-13T13:07:42;1.33;;;0.90;;
6939;SDS011;3509;48.510;9.076;2022-09-13T13:10:25;3.30;;;1.27;;
6939;SDS011;3509;48.510;9.076;2022-09-13T13:13:12;1.45;;;1.10;;
6939;SDS011;3509;48.510;9.076;2022-09-13T13:15:56;1.27;;;1.17;;
6939;SDS011;3509;48.510;9.076;2022-09-13T13:26:48;1.90;;;1.10;;
6939;SDS011;3509;48.510;9.076;2022-09-13T13:29:20;1.73;;;1.20;;
6939;SDS011;3509;48.510;9.076;2022-09-13T13:36:48;1.92;;;1.20;;
6939;SDS011;3509;48.510;9.076;2022-09-13T13:59:51;3.25;;;1.17;;
6939;SDS011;3509;48.510;9.076;2022-09-13T14:02:20;5.00;;;1.00;;
6939;SDS011;3509;48.510;9.076;2022-09-13T14:04:59;3.38;;;1.17;;
6939;SDS011;3509;48.510;9.076;2022-09-13T14:07:49;2.05;;;1.02;;
6939;SDS011;3509;48.510;9.076;2022-09-13T14:13:30;1.48;;;1.00;;
6939;SDS011;3509;48.510;9.076;2022-09-13T14:22:20;2.00;;;1.20;;
6939;SDS011;3509;48.510;9.076;2022-09-13T14:24:57;1.48;;;1.20;;
6939;SDS011;3509;48.510;9.076;2022-09-13T14:27:36;3.53;;;1.10;;
6939;SDS011;3509;48.510;9.076;2022-09-13T14:30:17;3.03;;;1.17;;
6939;SDS011;3509;48.510;9.076;2022-09-13T14:32:57;1.73;;;1.10;;
6939;SDS011;3509;48.510;9.076;2022-09-13T14:35:27;5.22;;;1.50;;
6939;SDS011;3509;48.510;9.076;2022-09-13T14:38:15;1.30;;;1.20;;
6939;SDS011;3509;48.510;9.076;2022-09-13T14:40:50;1.25;;;1.15;;
6939;SDS011;3509;48.510;9.076;2022-09-13T14:43:19;3.10;;;1.45;;
6939;SDS011;3509;48.510;9.076;2022-09-13T14:45:47;2.25;;;1.20;;
6939;SDS011;3509;48.510;9.076;2022-09-13T14:50:49;3.03;;;1.17;;
6939;SDS011;3509;48.510;9.076;2022-09-13T14:53:19;3.28;;;1.10;;
6939;SDS011;3509;48.510;9.076;2022-09-13T14:55:51;1.48;;;1.10;;
6939;SDS011;3509;48.510;9.076;2022-09-13T14:58:28;2.92;;;1.10;;
6939;SDS011;3509;48.510;9.076;2022-09-13T15:01:01;2.45;;;1.05;;
6939;SDS011;3509;48.510;9.076;2022-09-13T15:03:30;2.65;;;1.20;;
6939;SDS011;3509;48.510;9.076;2022-09-13T15:05:57;2.80;;;1.30;;
6939;SDS011;3509;48.510;9.076;2022-09-13T15:10:57;1.20;;;1.10;;
6939;SDS011;3509;48.510;9.076;2022-09-13T15:13:23;2.53;;;1.40;;
6939;SDS011;3509;48.510;9.076;2022-09-13T15:15:49;1.50;;;1.20;;
6939;SDS011;3509;48.510;9.076;2022-09-13T15:23:48;2.70;;;1.15;;
6939;SDS011;3509;48.510;9.076;2022-09-13T15:26:21;3.10;;;1.42;;
6939;SDS011;3509;48.510;9.076;2022-09-13T15:28:52;3.72;;;1.20;;
6939;SDS011;3509;48.510;9.076;2022-09-13T15:37:08;9.55;;;1.50;;
6939;SDS011;3509;48.510;9.076;2022-09-13T15:39:43;5.80;;;1.55;;
6939;SDS011;3509;48.510;9.076;2022-09-13T15:42:09;9.15;;;1.30;;
6939;SDS011;3509;48.510;9.076;2022-09-13T15:44:35;4.45;;;1.48;;
6939;SDS011;3509;48.510;9.076;2022-09-13T15:47:01;1.70;;;1.23;;
6939;SDS011;3509;48.510;9.076;2022-09-13T15:49:32;1.60;;;1.27;;
6939;SDS011;3509;48.510;9.076;2022-09-13T15:51:58;2.95;;;1.15;;
6939;SDS011;3509;48.510;9.076;2022-09-13T15:54:35;1.20;;;1.10;;
6939;SDS011;3509;48.510;9.076;2022-09-13T15:57:07;2.58;;;1.25;;
6939;SDS011;3509;48.510;9.076;2022-09-13T15:59:37;1.90;;;1.40;;
6939;SDS011;3509;48.510;9.076;2022-09-13T16:02:12;8.25;;;1.20;;
6939;SDS011;3509;48.510;9.076;2022-09-13T16:04:41;3.38;;;1.10;;
6939;SDS011;3509;48.510;9.076;2022-09-13T16:07:07;2.35;;;1.20;;
6939;SDS011;3509;48.510;9.076;2022-09-13T16:09:33;1.65;;;1.25;;
6939;SDS011;3509;48.510;9.076;2022-09-13T16:11:59;2.20;;;1.20;;
6939;SDS011;3509;48.510;9.076;2022-09-13T16:14:25;1.30;;;1.20;;
6939;SDS011;3509;48.510;9.076;2022-09-13T16:16:50;6.65;;;1.65;;
6939;SDS011;3509;48.510;9.076;2022-09-13T16:19:20;3.95;;;1.10;;
6939;SDS011;3509;48.510;9.076;2022-09-13T16:21:47;1.33;;;1.08;;
6939;SDS011;3509;48.510;9.076;2022-09-13T16:24:14;3.95;;;1.40;;
6939;SDS011;3509;48.510;9.076;2022-09-13T16:26:41;1.65;;;1.05;;
6939;SDS011;3509;48.510;9.076;2022-09-13T16:29:08;1.50;;;1.10;;
6939;SDS011;3509;48.510;9.076;2022-09-13T16:31:35;1.60;;;1.08;;
6939;SDS011;3509;48.510;9.076;2022-09-13T16:34:00;2.67;;;1.10;;
6939;SDS011;3509;48.510;9.076;2022-09-13T16:36:26;1.88;;;1.25;;
6939;SDS011;3509;48.510;9.076;2022-09-13T16:38:53;2.00;;;1.00;;
6939;SDS011;3509;48.510;9.076;2022-09-13T16:41:19;2.22;;;1.10;;
6939;SDS011;3509;48.510;9.076;2022-09-13T16:43:45;3.13;;;1.10;;
6939;SDS011;3509;48.510;9.076;2022-09-13T16:46:11;4.15;;;1.30;;
6939;SDS011;3509;48.510;9.076;2022-09-13T16:48:38;3.00;;;1.30;;
6939;SDS011;3509;48.510;9.076;2022-09-13T16:51:04;2.03;;;1.27;;
6939;SDS011;3509;48.510;9.076;2022-09-13T16:53:32;2.85;;;1.20;;
6939;SDS011;3509;48.510;9.076;2022-09-13T16:56:05;2.97;;;1.33;;
6939;SDS011;3509;48.510;9.076;2022-09-13T16:58:39;2.28;;;1.20;;
6939;SDS011;3509;48.510;9.076;2022-09-13T17:01:06;1.30;;;1.05;;
6939;SDS011;3509;48.510;9.076;2022-09-13T17:03:34;5.75;;;1.20;;
6939;SDS011;3509;48.510;9.076;2022-09-13T17:06:02;4.05;;;1.67;;
6939;SDS011;3509;48.510;9.076;2022-09-13T17:08:29;2.72;;;1.20;;
6939;SDS011;3509;48.510;9.076;2022-09-13T17:10:55;5.00;;;1.30;;
6939;SDS011;3509;48.510;9.076;2022-09-13T17:13:21;8.65;;;1.35;;
6939;SDS011;3509;48.510;9.076;2022-09-13T17:15:48;1.20;;;1.10;;
6939;SDS011;3509;48.510;9.076;2022-09-13T17:18:14;3.55;;;1.30;;
6939;SDS011;3509;48.510;9.076;2022-09-13T17:20:46;4.28;;;1.48;;
6939;SDS011;3509;48.510;9.076;2022-09-13T17:23:13;3.53;;;1.50;;
6939;SDS011;3509;48.510;9.076;2022-09-13T17:25:39;4.60;;;1.52;;
6939;SDS011;3509;48.510;9.076;2022-09-13T17:28:09;4.75;;;1.42;;
6939;SDS011;3509;48.510;9.076;2022-09-13T17:30:35;6.00;;;1.67;;
6939;SDS011;3509;48.510;9.076;2022-09-13T17:33:01;6.20;;;1.85;;
6939;SDS011;3509;48.510;9.076;2022-09-13T17:35:29;5.63;;;2.58;;
6939;SDS011;3509;48.510;9.076;2022-09-13T17:37:56;7.57;;;1.60;;
6939;SDS011;3509;48.510;9.076;2022-09-13T17:40:22;5.90;;;1.98;;
6939;SDS011;3509;48.510;9.076;2022-09-13T17:42:48;1.70;;;1.60;;
6939;SDS011;3509;48.510;9.076;2022-09-13T17:45:14;4.82;;;1.70;;
6939;SDS011;3509;48.510;9.076;2022-09-13T17:47:39;5.32;;;1.60;;
6939;SDS011;3509;48.510;9.076;2022-09-13T17:50:05;3.53;;;1.98;;
6939;SDS011;3509;48.510;9.076;2022-09-13T17:52:32;4.15;;;1.73;;
6939;SDS011;3509;48.510;9.076;2022-09-13T17:54:58;5.30;;;2.10;;
6939;SDS011;3509;48.510;9.076;2022-09-13T17:57:23;4.30;;;2.05;;
6939;SDS011;3509;48.510;9.076;2022-09-13T17:59:49;2.80;;;1.60;;
6939;SDS011;3509;48.510;9.076;2022-09-13T18:02:16;11.52;;;2.03;;
6939;SDS011;3509;48.510;9.076;2022-09-13T18:04:42;4.68;;;3.20;;
6939;SDS011;3509;48.510;9.076;2022-09-13T18:07:07;5.32;;;2.15;;
6939;SDS011;3509;48.510;9.076;2022-09-13T18:09:33;3.13;;;1.92;;
6939;SDS011;3509;48.510;9.076;2022-09-13T18:11:58;8.18;;;2.33;;
6939;SDS011;3509;48.510;9.076;2022-09-13T18:14:24;1.88;;;1.50;;
6939;SDS011;3509;48.510;9.076;2022-09-13T18:16:51;3.25;;;1.48;;
6939;SDS011;3509;48.510;9.076;2022-09-13T18:19:20;4.32;;;1.40;;
6939;SDS011;3509;48.510;9.076;2022-09-13T18:21:47;3.85;;;1.63;;
6939;SDS011;3509;48.510;9.076;2022-09-13T18:24:13;5.68;;;2.03;;
6939;SDS011;3509;48.510;9.076;2022-09-13T18:26:38;7.05;;;2.10;;
6939;SDS011;3509;48.510;9.076;2022-09-13T18:29:05;6.40;;;2.60;;
6939;SDS011;3509;48.510;9.076;2022-09-13T18:31:34;5.57;;;3.03;;
6939;SDS011;3509;48.510;9.076;2022-09-13T18:34:01;4.50;;;2.08;;
6939;SDS011;3509;48.510;9.076;2022-09-13T18:36:29;2.30;;;2.10;;
6939;SDS011;3509;48.510;9.076;2022-09-13T18:38:57;5.72;;;3.83;;
6939;SDS011;3509;48.510;9.076;2022-09-13T18:41:24;6.15;;;2.03;;
6939;SDS011;3509;48.510;9.076;2022-09-13T18:43:51;6.13;;;2.88;;
6939;SDS011;3509;48.510;9.076;2022-09-13T18:46:19;2.70;;;1.73;;
6939;SDS011;3509;48.510;9.076;2022-09-13T18:48:48;4.10;;;1.60;;
6939;SDS011;3509;48.510;9.076;2022-09-13T18:51:19;7.80;;;2.40;;
6939;SDS011;3509;48.510;9.076;2022-09-13T18:53:47;7.72;;;2.03;;
6939;SDS011;3509;48.510;9.076;2022-09-13T18:56:15;6.82;;;2.38;;
6939;SDS011;3509;48.510;9.076;2022-09-13T18:58:43;8.10;;;2.20;;
6939;SDS011;3509;48.510;9.076;2022-09-13T19:01:19;9.93;;;2.15;;
6939;SDS011;3509;48.510;9.076;2022-09-13T19:03:50;9.55;;;2.22;;
6939;SDS011;3509;48.510;9.076;2022-09-13T19:08:54;6.55;;;2.38;;
6939;SDS011;3509;48.510;9.076;2022-09-13T19:11:22;6.95;;;2.58;;
6939;SDS011;3509;48.510;9.076;2022-09-13T19:13:49;7.68;;;2.78;;
6939;SDS011;3509;48.510;9.076;2022-09-13T19:16:16;5.47;;;3.05;;